MDT,Max TemperatureF,Mean TemperatureF,Min TemperatureF,Max Dew PointF,MeanDew PointF,Min DewpointF,Max Humidity, Mean Humidity, Min Humidity, Max Sea Level PressureIn, Mean Sea Level PressureIn, Min Sea Level PressureIn, Max VisibilityMiles, Mean VisibilityMiles, Min VisibilityMiles, Max Wind SpeedMPH, Mean Wind SpeedMPH, Max Gust SpeedMPH,PrecipitationIn, CloudCover, Events, WindDirDegrees
2013-10-1,69,50,31,37,34,29,92,61,29,30.04,29.96,29.89,10,10,10,22,7,26,0.00,2,,252
2013-10-2,57,48,38,35,31,26,70,51,32,30.09,29.94,29.82,10,10,10,24,8,29,T,3,Thunderstorm,231
2013-10-3,43,39,35,36,33,28,92,80,67,30.16,29.97,29.86,10,10,8,31,16,39,0.17,7,Rain,230
2013-10-4,54,43,31,29,26,22,75,52,28,30.46,30.35,30.18,10,10,10,25,11,33,T,4,Snow,12
2013-10-5,58,41,23,28,25,22,100,63,25,30.55,30.48,30.44,10,10,10,16,5,22,0.00,0,,226
2013-10-6,70,48,26,31,27,23,92,56,20,30.48,30.34,30.18,10,10,10,8,2,14,0.00,0,,8
2013-10-7,75,51,27,33,27,22,92,54,15,30.17,29.99,29.80,10,10,7,16,5,24,0.00,0,,228
2013-10-8,55,44,33,31,27,24,69,51,32,29.93,29.87,29.78,10,10,10,29,16,35,0.00,1,,224
2013-10-9,67,46,24,40,29,21,88,56,24,29.88,29.81,29.73,10,10,9,28,8,38,T,2,Rain,66
2013-10-10,53,46,39,40,33,26,85,64,42,29.84,29.75,29.70,10,10,10,25,14,30,T,6,Rain,219
2013-10-11,55,45,34,29,27,25,70,50,30,30.08,30.02,29.86,10,10,10,21,12,26,T,3,,221
2013-10-12,62,46,30,34,29,26,85,56,27,30.08,29.99,29.90,10,10,10,10,5,13,0.00,2,,47
2013-10-13,49,44,38,43,41,33,96,81,65,30.09,30.01,29.90,10,9,5,15,7,21,0.20,8,Rain,243
2013-10-14,49,39,29,39,35,30,93,79,65,30.33,30.24,30.11,10,10,10,22,11,25,0.01,6,Rain,227
2013-10-15,52,38,24,30,25,18,100,63,26,30.39,30.32,30.27,10,8,1,12,3,17,0.00,1,,360
2013-10-16,56,40,23,30,25,21,92,59,26,30.30,30.20,30.09,10,10,10,20,6,23,0.00,1,,230
2013-10-17,56,41,25,31,28,25,92,62,32,30.21,30.14,30.09,10,10,10,13,5,16,0.00,3,,33
2013-10-18,53,38,23,29,24,19,88,57,26,30.35,30.28,30.21,10,10,10,12,4,15,0.00,1,,227
2013-10-19,62,45,28,29,25,20,85,53,20,30.27,30.16,30.00,10,10,7,22,9,32,0.00,0,,222
2013-10-20,60,48,35,30,27,24,64,45,26,30.13,30.06,29.99,10,10,10,14,6,17,0.00,0,,220
2013-10-21,62,44,25,33,29,22,85,58,30,30.30,30.23,30.14,10,10,10,14,3,17,0.00,0,,256
2013-10-22,68,48,27,32,30,25,92,58,24,30.32,30.22,30.14,10,10,10,8,3,12,0.00,0,,55
2013-10-23,69,47,25,32,29,23,92,57,22,30.24,30.16,30.09,10,10,10,8,3,10,0.00,0,,14
2013-10-24,70,49,27,32,28,24,85,54,22,30.22,30.15,30.08,10,10,10,7,2,10,0.00,0,,23
2013-10-25,66,46,26,32,28,25,85,55,24,30.29,30.23,30.15,10,10,10,9,3,12,0.00,0,,222
2013-10-26,67,47,27,31,26,22,85,52,19,30.39,30.28,30.17,10,10,10,9,2,9,0.00,0,,4
2013-10-27,68,47,26,28,24,18,81,48,15,30.14,29.85,29.53,10,10,10,26,6,33,0.00,2,,138
2013-10-28,65,51,36,43,36,32,92,62,32,29.74,29.57,29.41,10,10,10,36,12,45,0.11,6,Rain-Thunderstorm,32
2013-10-29,51,42,33,37,34,33,100,78,56,29.97,29.87,29.73,10,8,0,18,5,21,0.00,6,Fog,224
2013-10-30,42,40,38,35,31,29,85,71,57,30.11,30.01,29.96,10,10,10,26,17,32,0.00,7,,226
2013-10-31,50,43,36,36,31,26,76,59,42,30.19,30.12,30.06,10,10,10,29,19,33,0.00,5,,234